| time (UTC) | temp C | wind direction | speed KPH | gust KPH | rain 1hr cm | rain 24hr cm | rain mn cm | humidity % | barometer mb |
| 20260504220440 | 25 | 180 | 9.7 | 6.4 | 0.00 | 0.00 | 0.46 | 43 | 1003.7 |
| 20260504214942 | 26 | 204 | 12.9 | 14.5 | 0.00 | 0.00 | 0.46 | 43 | 1003.7 |
| 20260504213441 | 25 | 204 | 3.2 | 4.8 | 0.00 | 0.00 | 0.46 | 48 | 1003.8 |
| 20260504211942 | 25 | 235 | 14.5 | 4.8 | 0.00 | 0.00 | 0.46 | 48 | 1003.9 |
| 20260504210441 | 25 | 146 | 11.3 | 8.0 | 0.00 | 0.00 | 0.46 | 51 | 1004.0 |
| 20260504204943 | 24 | 174 | 4.8 | 4.8 | 0.00 | 0.00 | 0.46 | 57 | 1004.4 |
| 20260504203442 | 23 | 214 | 9.7 | 8.0 | 0.03 | 0.00 | 0.46 | 58 | 1004.7 |
| 20260504201943 | 23 | 38 | 1.6 | 3.2 | 0.03 | 0.00 | 0.46 | 59 | 1004.8 |
| 20260504200442 | 22 | 180 | 6.4 | 12.9 | 0.03 | 0.00 | 0.46 | 65 | 1004.8 |
| 20260504194944 | 21 | 259 | 3.2 | 4.8 | 0.03 | 0.00 | 0.46 | 73 | 1004.8 |
| 20260504193443 | 20 | 231 | 8.0 | 6.4 | 0.15 | 0.00 | 0.46 | 75 | 1005.2 |
| 20260504191944 | 18 | 218 | 6.4 | 14.5 | 0.15 | 0.00 | 0.46 | 80 | 1005.1 |
| 20260504190444 | 17 | 187 | 4.8 | 17.7 | 0.15 | 0.00 | 0.46 | 86 | 1004.8 |
| 20260504184945 | 17 | 163 | 1.6 | 4.8 | 0.15 | 0.00 | 0.43 | 86 | 1006.5 |
| 20260504183444 | 17 | 170 | 3.2 | 6.4 | 0.28 | 0.00 | 0.43 | 90 | 1006.6 |
| 20260504181946 | 16 | 267 | 6.4 | 4.8 | 0.28 | 0.00 | 0.43 | 89 | 1006.3 |
| 20260504180445 | 16 | 211 | 0.0 | 0.0 | 0.28 | 0.00 | 0.43 | 88 | 1006.2 |
| 20260504174947 | 16 | 198 | 9.7 | 8.0 | 0.28 | 0.00 | 0.41 | 87 | 1006.2 |
| 20260504173447 | 17 | 142 | 8.0 | 8.0 | 0.00 | 0.00 | 0.05 | 80 | 1007.0 |
| 20260504171952 | 17 | 156 | 4.8 | 0.0 | 0.00 | 0.00 | 0.03 | 75 | 1007.1 |
| 20260504171947 | 17 | 156 | 4.8 | 0.0 | 0.00 | 0.00 | 0.03 | 75 | 1007.1 |
| 20260504170446 | 17 | 231 | 4.8 | 0.0 | 0.00 | 0.00 | 0.03 | 74 | 1007.3 |
| 20260504150449 | 18 | 203 | 6.4 | 6.4 | 0.00 | 0.00 | 0.00 | 49 | 1008.8 |
| 20260504140451 | 20 | 253 | 6.4 | 12.9 | 0.00 | 0.00 | 0.00 | 46 | 1009.0 |
| 20260504130453 | 17 | 219 | 0.0 | 0.0 | 0.00 | 0.00 | 0.00 | 57 | 1009.7 |
| 20260504110455 | 15 | 173 | 0.0 | 0.0 | 0.00 | 0.00 | 0.00 | 64 | 1009.9 |
| 20260504100457 | 15 | 226 | 6.4 | 0.0 | 0.00 | 0.00 | 0.00 | 67 | 1010.2 |
| 20260504081958 | 16 | 243 | 0.0 | 0.0 | 0.00 | 0.00 | 0.00 | 72 | 1010.1 |
| 20260504080458 | 16 | 243 | 0.0 | 0.0 | 0.00 | 0.00 | 0.00 | 69 | 1009.9 |
| 20260504050503 | 18 | 229 | 11.3 | 11.3 | 0.00 | 0.00 | 0.00 | 46 | 1009.7 |
| 20260504045005 | 19 | 160 | 4.8 | 11.3 | 0.00 | 0.00 | 0.00 | 45 | 1009.3 |
| 20260504043504 | 19 | 215 | 11.3 | 9.7 | 0.00 | 0.00 | 0.00 | 44 | 1009.5 |
| 20260504042006 | 20 | 236 | 11.3 | 0.0 | 0.00 | 0.00 | 0.00 | 43 | 1010.0 |
| 20260504040505 | 20 | 249 | 11.3 | 9.7 | 0.00 | 0.00 | 0.00 | 45 | 1010.3 |
| 20260504035008 | 20 | 240 | 8.0 | 8.0 | 0.00 | 0.00 | 0.00 | 43 | 1009.8 |
| 20260504033506 | 20 | 249 | 3.2 | 0.0 | 0.00 | 0.00 | 0.00 | 43 | 1010.5 |
| 20260504032008 | 20 | 194 | 0.0 | 0.0 | 0.00 | 0.00 | 0.00 | 42 | 1010.6 |
| 20260504030507 | 20 | 179 | 1.6 | 0.0 | 0.00 | 0.00 | 0.00 | 42 | 1010.7 |
| 20260504025009 | 21 | 172 | 0.0 | 12.9 | 0.00 | 0.00 | 0.00 | 41 | 1010.5 |
| 20260504023508 | 21 | 248 | 0.0 | 0.0 | 0.00 | 0.00 | 0.00 | 42 | 1010.5 |
| 20260504022010 | 21 | 248 | 0.0 | 0.0 | 0.00 | 0.00 | 0.00 | 39 | 1010.6 |
| 20260504020517 | 21 | 263 | 0.0 | 0.0 | 0.00 | 0.76 | 0.00 | 37 | 1010.4 |
| 20260504020509 | 21 | 263 | 0.0 | 0.0 | 0.00 | 0.00 | 0.00 | 37 | 1010.4 |
| 20260504015010 | 22 | 246 | 4.8 | 9.7 | 0.00 | 0.00 | 0.00 | 36 | 1010.1 |
| 20260504013510 | 22 | 176 | 3.2 | 4.8 | 0.00 | 0.00 | 0.00 | 35 | 1010.0 |
| 20260504012011 | 22 | 239 | 4.8 | 4.8 | 0.00 | 0.00 | 0.00 | 34 | 1009.8 |
| 20260504010511 | 22 | 203 | 6.4 | 6.4 | 0.00 | 0.00 | 0.00 | 34 | 1009.7 |
| 20260504005013 | 22 | 212 | 0.0 | 0.0 | 0.00 | 0.00 | 0.00 | 33 | 1009.8 |
| 20260504003512 | 23 | 174 | 4.8 | 0.0 | 0.00 | 0.00 | 0.00 | 32 | 1009.8 |
| 20260504002013 | 23 | 226 | 8.0 | 0.0 | 0.00 | 0.00 | 0.00 | 31 | 1009.9 |
| 20260504000512 | 23 | 233 | 11.3 | 4.8 | 0.00 | 0.00 | 0.00 | 29 | 1009.9 |
| 20260503235014 | 23 | 243 | 9.7 | 8.0 | 0.00 | 0.00 | 0.00 | 28 | 1010.0 |
| 20260503233513 | 23 | 226 | 14.5 | 14.5 | 0.00 | 0.00 | 0.00 | 28 | 1010.2 |
| 20260503232015 | 24 | 236 | 11.3 | 25.7 | 0.00 | 0.00 | 0.00 | 26 | 1010.3 |
| 20260503230514 | 25 | 238 | 9.7 | 8.0 | 0.00 | 0.00 | 0.00 | 26 | 1010.5 |
| 20260503225016 | 25 | 226 | 22.5 | 16.1 | 0.00 | 0.00 | 0.00 | 25 | 1010.6 |
| 20260503223515 | 25 | 253 | 14.5 | 11.3 | 0.00 | 0.00 | 0.00 | 24 | 1010.8 |
| 20260503222017 | 25 | 218 | 22.5 | 11.3 | 0.00 | 0.00 | 0.00 | 22 | 1010.8 |